sensor_id;sensor_type;location;lat;lon;timestamp;P1;durP1;ratioP1;P2;durP2;ratioP2
48203;SDS011;33994;50.998;5.864;2023-02-28T00:02:58;13.07;;;6.63;;
48203;SDS011;33994;50.998;5.864;2023-02-28T00:06:01;9.93;;;5.90;;
48203;SDS011;33994;50.998;5.864;2023-02-28T00:09:05;14.57;;;6.55;;
48203;SDS011;33994;50.998;5.864;2023-02-28T00:12:09;13.50;;;6.78;;
48203;SDS011;33994;50.998;5.864;2023-02-28T00:15:13;14.45;;;7.03;;
48203;SDS011;33994;50.998;5.864;2023-02-28T00:18:16;14.88;;;6.95;;
48203;SDS011;33994;50.998;5.864;2023-02-28T00:21:19;12.95;;;6.75;;
48203;SDS011;33994;50.998;5.864;2023-02-28T00:24:23;15.80;;;7.22;;
48203;SDS011;33994;50.998;5.864;2023-02-28T00:27:28;14.48;;;7.53;;
48203;SDS011;33994;50.998;5.864;2023-02-28T00:30:31;13.15;;;7.07;;
48203;SDS011;33994;50.998;5.864;2023-02-28T00:33:34;16.15;;;7.38;;
48203;SDS011;33994;50.998;5.864;2023-02-28T00:36:37;15.13;;;7.45;;
48203;SDS011;33994;50.998;5.864;2023-02-28T00:39:40;11.43;;;6.68;;
48203;SDS011;33994;50.998;5.864;2023-02-28T00:42:45;19.08;;;7.22;;
48203;SDS011;33994;50.998;5.864;2023-02-28T00:45:47;15.18;;;6.90;;
48203;SDS011;33994;50.998;5.864;2023-02-28T00:48:50;14.38;;;6.75;;
48203;SDS011;33994;50.998;5.864;2023-02-28T00:51:54;12.32;;;6.88;;
48203;SDS011;33994;50.998;5.864;2023-02-28T00:54:57;12.70;;;6.82;;
48203;SDS011;33994;50.998;5.864;2023-02-28T00:58:01;17.67;;;7.63;;
48203;SDS011;33994;50.998;5.864;2023-02-28T01:01:04;12.95;;;6.80;;
48203;SDS011;33994;50.998;5.864;2023-02-28T01:04:08;15.98;;;7.43;;
48203;SDS011;33994;50.998;5.864;2023-02-28T01:07:11;9.02;;;5.90;;
48203;SDS011;33994;50.998;5.864;2023-02-28T01:10:14;12.13;;;6.60;;
48203;SDS011;33994;50.998;5.864;2023-02-28T01:13:19;12.75;;;5.85;;
48203;SDS011;33994;50.998;5.864;2023-02-28T01:16:23;9.27;;;6.10;;
48203;SDS011;33994;50.998;5.864;2023-02-28T01:19:26;10.23;;;6.30;;
48203;SDS011;33994;50.998;5.864;2023-02-28T01:22:30;12.45;;;6.82;;
48203;SDS011;33994;50.998;5.864;2023-02-28T01:25:34;14.48;;;5.97;;
48203;SDS011;33994;50.998;5.864;2023-02-28T01:28:38;13.57;;;7.72;;
48203;SDS011;33994;50.998;5.864;2023-02-28T01:31:42;11.15;;;6.32;;
48203;SDS011;33994;50.998;5.864;2023-02-28T01:34:45;16.08;;;6.75;;
48203;SDS011;33994;50.998;5.864;2023-02-28T01:37:48;9.70;;;6.43;;
48203;SDS011;33994;50.998;5.864;2023-02-28T01:40:51;9.40;;;6.13;;
48203;SDS011;33994;50.998;5.864;2023-02-28T01:43:57;13.80;;;6.60;;
48203;SDS011;33994;50.998;5.864;2023-02-28T01:47:03;11.10;;;6.30;;
48203;SDS011;33994;50.998;5.864;2023-02-28T01:50:07;11.43;;;6.35;;
48203;SDS011;33994;50.998;5.864;2023-02-28T01:56:20;10.88;;;6.03;;
48203;SDS011;33994;50.998;5.864;2023-02-28T01:59:29;10.80;;;6.35;;
48203;SDS011;33994;50.998;5.864;2023-02-28T02:02:36;14.18;;;6.88;;
48203;SDS011;33994;50.998;5.864;2023-02-28T02:05:40;12.13;;;7.03;;
48203;SDS011;33994;50.998;5.864;2023-02-28T02:08:44;12.45;;;6.22;;
48203;SDS011;33994;50.998;5.864;2023-02-28T02:11:47;13.15;;;6.53;;
48203;SDS011;33994;50.998;5.864;2023-02-28T02:14:55;12.57;;;6.32;;
48203;SDS011;33994;50.998;5.864;2023-02-28T02:18:09;16.60;;;6.90;;
48203;SDS011;33994;50.998;5.864;2023-02-28T02:21:46;10.57;;;6.45;;
48203;SDS011;33994;50.998;5.864;2023-02-28T02:28:34;10.45;;;6.68;;
48203;SDS011;33994;50.998;5.864;2023-02-28T02:35:32;15.13;;;6.72;;
48203;SDS011;33994;50.998;5.864;2023-02-28T02:38:45;10.25;;;6.35;;
48203;SDS011;33994;50.998;5.864;2023-02-28T02:41:53;9.73;;;5.72;;
48203;SDS011;33994;50.998;5.864;2023-02-28T02:45:00;11.82;;;6.75;;
48203;SDS011;33994;50.998;5.864;2023-02-28T02:48:08;10.85;;;5.95;;
48203;SDS011;33994;50.998;5.864;2023-02-28T02:54:23;15.40;;;6.60;;
48203;SDS011;33994;50.998;5.864;2023-02-28T02:57:31;15.90;;;7.30;;
48203;SDS011;33994;50.998;5.864;2023-02-28T03:00:40;12.85;;;6.65;;
48203;SDS011;33994;50.998;5.864;2023-02-28T03:03:47;13.20;;;6.85;;
48203;SDS011;33994;50.998;5.864;2023-02-28T03:06:52;15.73;;;7.10;;
48203;SDS011;33994;50.998;5.864;2023-02-28T03:09:56;11.82;;;6.97;;
48203;SDS011;33994;50.998;5.864;2023-02-28T03:13:03;17.25;;;6.97;;
48203;SDS011;33994;50.998;5.864;2023-02-28T03:16:21;11.82;;;7.68;;
48203;SDS011;33994;50.998;5.864;2023-02-28T03:19:38;11.98;;;7.32;;
48203;SDS011;33994;50.998;5.864;2023-02-28T03:23:00;13.07;;;7.10;;
48203;SDS011;33994;50.998;5.864;2023-02-28T03:26:12;15.70;;;6.53;;
48203;SDS011;33994;50.998;5.864;2023-02-28T03:29:22;11.48;;;6.93;;
48203;SDS011;33994;50.998;5.864;2023-02-28T03:32:36;15.20;;;7.78;;
48203;SDS011;33994;50.998;5.864;2023-02-28T03:35:45;15.30;;;7.45;;
48203;SDS011;33994;50.998;5.864;2023-02-28T03:38:56;11.57;;;7.55;;
48203;SDS011;33994;50.998;5.864;2023-02-28T03:42:04;19.83;;;7.88;;
48203;SDS011;33994;50.998;5.864;2023-02-28T03:45:12;14.77;;;7.78;;
48203;SDS011;33994;50.998;5.864;2023-02-28T03:48:19;28.08;;;9.90;;
48203;SDS011;33994;50.998;5.864;2023-02-28T03:51:26;13.63;;;7.57;;
48203;SDS011;33994;50.998;5.864;2023-02-28T03:54:32;11.80;;;7.18;;
48203;SDS011;33994;50.998;5.864;2023-02-28T03:57:41;14.43;;;7.60;;
48203;SDS011;33994;50.998;5.864;2023-02-28T04:00:55;16.40;;;8.07;;
48203;SDS011;33994;50.998;5.864;2023-02-28T04:04:03;14.38;;;7.40;;
48203;SDS011;33994;50.998;5.864;2023-02-28T04:07:07;15.77;;;7.55;;
48203;SDS011;33994;50.998;5.864;2023-02-28T04:10:12;15.88;;;7.85;;
48203;SDS011;33994;50.998;5.864;2023-02-28T04:13:17;17.60;;;7.82;;
48203;SDS011;33994;50.998;5.864;2023-02-28T04:16:20;13.15;;;7.25;;
48203;SDS011;33994;50.998;5.864;2023-02-28T04:19:23;13.40;;;7.85;;
48203;SDS011;33994;50.998;5.864;2023-02-28T04:22:26;15.13;;;7.75;;
48203;SDS011;33994;50.998;5.864;2023-02-28T04:25:31;18.17;;;8.15;;
48203;SDS011;33994;50.998;5.864;2023-02-28T04:28:36;18.80;;;7.30;;
48203;SDS011;33994;50.998;5.864;2023-02-28T04:31:39;15.80;;;7.78;;
48203;SDS011;33994;50.998;5.864;2023-02-28T04:34:43;16.40;;;8.18;;
48203;SDS011;33994;50.998;5.864;2023-02-28T04:37:46;13.27;;;8.38;;
48203;SDS011;33994;50.998;5.864;2023-02-28T04:40:50;16.33;;;8.07;;
48203;SDS011;33994;50.998;5.864;2023-02-28T04:43:53;14.52;;;7.90;;
48203;SDS011;33994;50.998;5.864;2023-02-28T04:46:57;14.93;;;8.90;;
48203;SDS011;33994;50.998;5.864;2023-02-28T04:50:00;15.80;;;8.00;;
48203;SDS011;33994;50.998;5.864;2023-02-28T04:53:03;17.13;;;8.40;;
48203;SDS011;33994;50.998;5.864;2023-02-28T04:56:08;16.67;;;7.93;;
48203;SDS011;33994;50.998;5.864;2023-02-28T04:59:13;13.15;;;7.35;;
48203;SDS011;33994;50.998;5.864;2023-02-28T05:02:16;15.70;;;8.18;;
48203;SDS011;33994;50.998;5.864;2023-02-28T05:05:20;13.70;;;7.75;;
48203;SDS011;33994;50.998;5.864;2023-02-28T05:08:23;14.30;;;7.43;;
48203;SDS011;33994;50.998;5.864;2023-02-28T05:11:28;19.27;;;7.80;;
48203;SDS011;33994;50.998;5.864;2023-02-28T05:14:32;14.00;;;7.55;;
48203;SDS011;33994;50.998;5.864;2023-02-28T05:17:35;12.93;;;7.90;;
48203;SDS011;33994;50.998;5.864;2023-02-28T05:20:39;19.52;;;8.45;;
48203;SDS011;33994;50.998;5.864;2023-02-28T05:23:41;16.15;;;7.82;;
48203;SDS011;33994;50.998;5.864;2023-02-28T05:26:46;16.05;;;9.40;;
48203;SDS011;33994;50.998;5.864;2023-02-28T05:29:49;15.68;;;8.85;;
48203;SDS011;33994;50.998;5.864;2023-02-28T05:32:53;19.65;;;8.30;;
48203;SDS011;33994;50.998;5.864;2023-02-28T05:35:56;15.88;;;8.40;;
48203;SDS011;33994;50.998;5.864;2023-02-28T05:38:59;16.90;;;7.90;;
48203;SDS011;33994;50.998;5.864;2023-02-28T05:42:04;15.60;;;8.63;;
48203;SDS011;33994;50.998;5.864;2023-02-28T05:45:08;15.82;;;8.63;;
48203;SDS011;33994;50.998;5.864;2023-02-28T05:48:12;19.55;;;8.57;;
48203;SDS011;33994;50.998;5.864;2023-02-28T05:51:15;19.65;;;8.02;;
48203;SDS011;33994;50.998;5.864;2023-02-28T05:54:19;15.32;;;7.60;;
48203;SDS011;33994;50.998;5.864;2023-02-28T05:57:23;16.50;;;7.85;;
48203;SDS011;33994;50.998;5.864;2023-02-28T06:00:26;18.20;;;8.10;;
48203;SDS011;33994;50.998;5.864;2023-02-28T06:03:29;13.18;;;7.18;;
48203;SDS011;33994;50.998;5.864;2023-02-28T06:06:33;14.65;;;7.82;;
48203;SDS011;33994;50.998;5.864;2023-02-28T06:09:36;14.00;;;7.10;;
48203;SDS011;33994;50.998;5.864;2023-02-28T06:12:41;14.35;;;6.50;;
48203;SDS011;33994;50.998;5.864;2023-02-28T06:15:44;13.80;;;6.78;;
48203;SDS011;33994;50.998;5.864;2023-02-28T06:18:47;16.75;;;6.43;;
48203;SDS011;33994;50.998;5.864;2023-02-28T06:21:50;12.55;;;6.10;;
48203;SDS011;33994;50.998;5.864;2023-02-28T06:24:54;12.60;;;6.55;;
48203;SDS011;33994;50.998;5.864;2023-02-28T06:27:58;14.85;;;6.78;;
48203;SDS011;33994;50.998;5.864;2023-02-28T06:31:05;12.13;;;6.30;;
48203;SDS011;33994;50.998;5.864;2023-02-28T06:34:09;10.93;;;6.28;;
48203;SDS011;33994;50.998;5.864;2023-02-28T06:37:13;10.82;;;6.00;;
48203;SDS011;33994;50.998;5.864;2023-02-28T06:40:16;12.90;;;6.38;;
48203;SDS011;33994;50.998;5.864;2023-02-28T06:43:21;9.88;;;5.25;;
48203;SDS011;33994;50.998;5.864;2023-02-28T06:46:24;9.20;;;5.47;;
48203;SDS011;33994;50.998;5.864;2023-02-28T06:49:28;13.55;;;6.75;;
48203;SDS011;33994;50.998;5.864;2023-02-28T06:52:31;12.00;;;6.13;;
48203;SDS011;33994;50.998;5.864;2023-02-28T06:55:34;11.52;;;5.22;;
48203;SDS011;33994;50.998;5.864;2023-02-28T06:58:39;11.18;;;6.10;;
48203;SDS011;33994;50.998;5.864;2023-02-28T07:01:43;9.65;;;5.13;;
48203;SDS011;33994;50.998;5.864;2023-02-28T07:04:46;12.02;;;5.93;;
48203;SDS011;33994;50.998;5.864;2023-02-28T07:07:49;8.88;;;5.57;;
48203;SDS011;33994;50.998;5.864;2023-02-28T07:10:52;8.50;;;4.90;;
48203;SDS011;33994;50.998;5.864;2023-02-28T07:13:57;8.43;;;4.88;;
48203;SDS011;33994;50.998;5.864;2023-02-28T07:17:00;10.13;;;5.07;;
48203;SDS011;33994;50.998;5.864;2023-02-28T07:20:03;10.82;;;5.22;;
48203;SDS011;33994;50.998;5.864;2023-02-28T07:23:07;9.05;;;5.35;;
48203;SDS011;33994;50.998;5.864;2023-02-28T07:26:11;8.75;;;5.47;;
48203;SDS011;33994;50.998;5.864;2023-02-28T07:29:17;10.05;;;5.15;;
48203;SDS011;33994;50.998;5.864;2023-02-28T07:32:20;10.50;;;5.90;;
48203;SDS011;33994;50.998;5.864;2023-02-28T07:35:23;8.10;;;5.00;;
48203;SDS011;33994;50.998;5.864;2023-02-28T07:38:26;15.30;;;5.72;;
48203;SDS011;33994;50.998;5.864;2023-02-28T07:41:30;14.43;;;5.00;;
48203;SDS011;33994;50.998;5.864;2023-02-28T07:44:34;10.82;;;5.20;;
48203;SDS011;33994;50.998;5.864;2023-02-28T07:47:38;12.07;;;4.95;;
48203;SDS011;33994;50.998;5.864;2023-02-28T07:50:41;10.10;;;5.35;;
48203;SDS011;33994;50.998;5.864;2023-02-28T07:53:45;9.55;;;4.82;;
48203;SDS011;33994;50.998;5.864;2023-02-28T07:56:48;10.40;;;4.57;;
48203;SDS011;33994;50.998;5.864;2023-02-28T07:59:52;8.35;;;4.30;;
48203;SDS011;33994;50.998;5.864;2023-02-28T08:02:55;9.82;;;4.60;;
48203;SDS011;33994;50.998;5.864;2023-02-28T08:05:58;10.00;;;4.55;;
48203;SDS011;33994;50.998;5.864;2023-02-28T08:09:02;8.95;;;4.97;;
48203;SDS011;33994;50.998;5.864;2023-02-28T08:12:05;12.25;;;4.57;;
48203;SDS011;33994;50.998;5.864;2023-02-28T08:15:10;9.85;;;5.13;;
48203;SDS011;33994;50.998;5.864;2023-02-28T08:18:14;7.07;;;4.15;;
48203;SDS011;33994;50.998;5.864;2023-02-28T08:21:17;9.20;;;4.32;;
48203;SDS011;33994;50.998;5.864;2023-02-28T08:24:20;8.93;;;4.63;;
48203;SDS011;33994;50.998;5.864;2023-02-28T08:27:23;9.50;;;4.07;;
48203;SDS011;33994;50.998;5.864;2023-02-28T08:30:28;11.10;;;4.15;;
48203;SDS011;33994;50.998;5.864;2023-02-28T08:33:31;7.25;;;4.10;;
48203;SDS011;33994;50.998;5.864;2023-02-28T08:36:34;9.65;;;4.25;;
48203;SDS011;33994;50.998;5.864;2023-02-28T08:39:38;8.48;;;4.78;;
48203;SDS011;33994;50.998;5.864;2023-02-28T08:42:42;8.93;;;4.50;;
48203;SDS011;33994;50.998;5.864;2023-02-28T08:45:46;8.10;;;4.15;;
48203;SDS011;33994;50.998;5.864;2023-02-28T08:48:51;7.30;;;4.47;;
48203;SDS011;33994;50.998;5.864;2023-02-28T08:51:55;7.57;;;4.38;;
48203;SDS011;33994;50.998;5.864;2023-02-28T08:54:58;7.30;;;4.15;;
48203;SDS011;33994;50.998;5.864;2023-02-28T08:58:01;9.70;;;3.72;;
48203;SDS011;33994;50.998;5.864;2023-02-28T09:01:09;6.38;;;3.30;;
48203;SDS011;33994;50.998;5.864;2023-02-28T09:04:13;7.13;;;3.78;;
48203;SDS011;33994;50.998;5.864;2023-02-28T09:07:16;9.57;;;3.90;;
48203;SDS011;33994;50.998;5.864;2023-02-28T09:10:19;6.60;;;3.80;;
48203;SDS011;33994;50.998;5.864;2023-02-28T09:13:22;7.60;;;3.42;;
48203;SDS011;33994;50.998;5.864;2023-02-28T09:16:26;4.07;;;2.70;;
48203;SDS011;33994;50.998;5.864;2023-02-28T09:19:29;8.98;;;3.70;;
48203;SDS011;33994;50.998;5.864;2023-02-28T09:22:32;5.53;;;3.10;;
48203;SDS011;33994;50.998;5.864;2023-02-28T09:25:36;5.15;;;2.90;;
48203;SDS011;33994;50.998;5.864;2023-02-28T09:28:40;9.82;;;4.07;;
48203;SDS011;33994;50.998;5.864;2023-02-28T09:31:45;5.15;;;3.17;;
48203;SDS011;33994;50.998;5.864;2023-02-28T09:34:48;4.32;;;2.50;;
48203;SDS011;33994;50.998;5.864;2023-02-28T09:37:51;8.55;;;4.35;;
48203;SDS011;33994;50.998;5.864;2023-02-28T09:40:55;5.57;;;3.08;;
48203;SDS011;33994;50.998;5.864;2023-02-28T09:44:00;3.85;;;2.70;;
48203;SDS011;33994;50.998;5.864;2023-02-28T09:47:10;5.60;;;2.53;;
48203;SDS011;33994;50.998;5.864;2023-02-28T09:50:19;5.53;;;2.60;;
48203;SDS011;33994;50.998;5.864;2023-02-28T09:53:31;7.45;;;2.47;;
48203;SDS011;33994;50.998;5.864;2023-02-28T09:56:38;4.53;;;3.00;;
48203;SDS011;33994;50.998;5.864;2023-02-28T09:59:55;3.83;;;2.20;;
48203;SDS011;33994;50.998;5.864;2023-02-28T10:03:10;4.72;;;2.70;;
48203;SDS011;33994;50.998;5.864;2023-02-28T10:06:28;4.47;;;2.58;;
48203;SDS011;33994;50.998;5.864;2023-02-28T10:09:33;3.50;;;2.40;;
48203;SDS011;33994;50.998;5.864;2023-02-28T10:12:38;4.38;;;2.13;;
48203;SDS011;33994;50.998;5.864;2023-02-28T10:15:46;2.92;;;2.00;;
48203;SDS011;33994;50.998;5.864;2023-02-28T10:22:03;6.70;;;1.85;;
48203;SDS011;33994;50.998;5.864;2023-02-28T10:25:16;3.80;;;2.15;;
48203;SDS011;33994;50.998;5.864;2023-02-28T10:28:20;5.03;;;2.03;;
48203;SDS011;33994;50.998;5.864;2023-02-28T10:31:24;3.60;;;2.03;;
48203;SDS011;33994;50.998;5.864;2023-02-28T10:34:29;3.42;;;2.10;;
48203;SDS011;33994;50.998;5.864;2023-02-28T10:37:32;3.30;;;2.00;;
48203;SDS011;33994;50.998;5.864;2023-02-28T10:40:35;4.50;;;1.55;;
48203;SDS011;33994;50.998;5.864;2023-02-28T10:43:39;2.92;;;1.50;;
48203;SDS011;33994;50.998;5.864;2023-02-28T10:46:44;2.47;;;2.05;;
48203;SDS011;33994;50.998;5.864;2023-02-28T10:49:50;3.63;;;1.63;;
48203;SDS011;33994;50.998;5.864;2023-02-28T10:52:53;3.03;;;1.30;;
48203;SDS011;33994;50.998;5.864;2023-02-28T10:55:58;2.45;;;1.27;;
48203;SDS011;33994;50.998;5.864;2023-02-28T10:59:03;3.83;;;1.75;;
48203;SDS011;33994;50.998;5.864;2023-02-28T11:02:30;2.42;;;1.50;;
48203;SDS011;33994;50.998;5.864;2023-02-28T11:05:36;4.15;;;1.90;;
48203;SDS011;33994;50.998;5.864;2023-02-28T11:08:43;2.42;;;1.50;;
48203;SDS011;33994;50.998;5.864;2023-02-28T11:11:48;2.53;;;1.80;;
48203;SDS011;33994;50.998;5.864;2023-02-28T11:14:52;2.28;;;1.48;;
48203;SDS011;33994;50.998;5.864;2023-02-28T11:17:59;2.85;;;1.52;;
48203;SDS011;33994;50.998;5.864;2023-02-28T11:21:05;4.72;;;2.22;;
48203;SDS011;33994;50.998;5.864;2023-02-28T11:24:12;6.65;;;2.03;;
48203;SDS011;33994;50.998;5.864;2023-02-28T11:27:40;3.30;;;1.98;;
48203;SDS011;33994;50.998;5.864;2023-02-28T11:30:49;2.72;;;1.83;;
48203;SDS011;33994;50.998;5.864;2023-02-28T11:34:20;5.32;;;2.67;;
48203;SDS011;33994;50.998;5.864;2023-02-28T11:37:28;3.47;;;2.22;;
48203;SDS011;33994;50.998;5.864;2023-02-28T11:40:36;4.25;;;2.30;;
48203;SDS011;33994;50.998;5.864;2023-02-28T11:47:29;4.38;;;1.90;;
48203;SDS011;33994;50.998;5.864;2023-02-28T11:50:42;3.20;;;2.00;;
48203;SDS011;33994;50.998;5.864;2023-02-28T11:58:05;6.35;;;2.30;;
48203;SDS011;33994;50.998;5.864;2023-02-28T12:01:43;3.38;;;2.38;;
48203;SDS011;33994;50.998;5.864;2023-02-28T12:05:08;6.75;;;2.70;;
48203;SDS011;33994;50.998;5.864;2023-02-28T12:08:29;3.47;;;2.30;;
48203;SDS011;33994;50.998;5.864;2023-02-28T12:11:48;3.60;;;2.65;;
48203;SDS011;33994;50.998;5.864;2023-02-28T12:18:45;4.88;;;2.30;;
48203;SDS011;33994;50.998;5.864;2023-02-28T12:22:18;4.05;;;2.35;;
48203;SDS011;33994;50.998;5.864;2023-02-28T12:25:36;4.60;;;2.55;;
48203;SDS011;33994;50.998;5.864;2023-02-28T12:28:46;4.88;;;3.08;;
48203;SDS011;33994;50.998;5.864;2023-02-28T12:31:53;3.25;;;2.50;;
48203;SDS011;33994;50.998;5.864;2023-02-28T12:35:04;4.53;;;2.70;;
48203;SDS011;33994;50.998;5.864;2023-02-28T12:38:14;6.65;;;3.17;;
48203;SDS011;33994;50.998;5.864;2023-02-28T12:41:22;4.47;;;3.00;;
48203;SDS011;33994;50.998;5.864;2023-02-28T12:44:44;4.32;;;2.72;;
48203;SDS011;33994;50.998;5.864;2023-02-28T12:47:53;4.80;;;2.60;;
48203;SDS011;33994;50.998;5.864;2023-02-28T12:51:01;4.70;;;2.65;;
48203;SDS011;33994;50.998;5.864;2023-02-28T12:54:09;7.38;;;3.35;;
48203;SDS011;33994;50.998;5.864;2023-02-28T12:57:20;5.70;;;3.17;;
48203;SDS011;33994;50.998;5.864;2023-02-28T13:00:33;4.93;;;3.00;;
48203;SDS011;33994;50.998;5.864;2023-02-28T13:03:43;5.22;;;2.47;;
48203;SDS011;33994;50.998;5.864;2023-02-28T13:06:59;5.20;;;2.90;;
48203;SDS011;33994;50.998;5.864;2023-02-28T13:10:16;7.53;;;3.08;;
48203;SDS011;33994;50.998;5.864;2023-02-28T13:13:21;4.43;;;2.83;;
48203;SDS011;33994;50.998;5.864;2023-02-28T13:16:26;7.95;;;2.97;;
48203;SDS011;33994;50.998;5.864;2023-02-28T13:19:30;8.25;;;2.58;;
48203;SDS011;33994;50.998;5.864;2023-02-28T13:22:38;4.95;;;2.90;;
48203;SDS011;33994;50.998;5.864;2023-02-28T13:25:51;7.55;;;2.75;;
48203;SDS011;33994;50.998;5.864;2023-02-28T13:28:59;3.72;;;2.53;;
48203;SDS011;33994;50.998;5.864;2023-02-28T13:35:43;3.35;;;2.28;;
48203;SDS011;33994;50.998;5.864;2023-02-28T13:38:48;4.75;;;2.63;;
48203;SDS011;33994;50.998;5.864;2023-02-28T13:41:53;3.03;;;2.15;;
48203;SDS011;33994;50.998;5.864;2023-02-28T13:48:26;5.07;;;2.30;;
48203;SDS011;33994;50.998;5.864;2023-02-28T13:51:37;4.90;;;2.58;;
48203;SDS011;33994;50.998;5.864;2023-02-28T13:54:51;7.65;;;2.85;;
48203;SDS011;33994;50.998;5.864;2023-02-28T13:58:08;4.07;;;2.75;;
48203;SDS011;33994;50.998;5.864;2023-02-28T14:01:35;8.27;;;2.55;;
48203;SDS011;33994;50.998;5.864;2023-02-28T14:05:00;6.40;;;2.55;;
48203;SDS011;33994;50.998;5.864;2023-02-28T14:08:08;3.92;;;2.50;;
48203;SDS011;33994;50.998;5.864;2023-02-28T14:11:26;3.22;;;2.42;;
48203;SDS011;33994;50.998;5.864;2023-02-28T14:17:57;3.53;;;2.80;;
48203;SDS011;33994;50.998;5.864;2023-02-28T14:21:10;6.22;;;3.22;;
48203;SDS011;33994;50.998;5.864;2023-02-28T14:24:30;3.67;;;3.05;;
48203;SDS011;33994;50.998;5.864;2023-02-28T14:27:55;6.18;;;4.07;;
48203;SDS011;33994;50.998;5.864;2023-02-28T14:31:07;7.47;;;4.22;;
48203;SDS011;33994;50.998;5.864;2023-02-28T14:34:17;9.77;;;4.97;;
48203;SDS011;33994;50.998;5.864;2023-02-28T14:37:29;6.53;;;3.20;;
48203;SDS011;33994;50.998;5.864;2023-02-28T14:40:36;5.03;;;3.00;;
48203;SDS011;33994;50.998;5.864;2023-02-28T14:43:48;5.50;;;2.75;;
48203;SDS011;33994;50.998;5.864;2023-02-28T14:46:55;5.43;;;2.90;;
48203;SDS011;33994;50.998;5.864;2023-02-28T14:49:59;7.07;;;3.03;;
48203;SDS011;33994;50.998;5.864;2023-02-28T14:53:04;7.50;;;2.70;;
48203;SDS011;33994;50.998;5.864;2023-02-28T14:56:19;5.57;;;3.00;;
48203;SDS011;33994;50.998;5.864;2023-02-28T14:59:29;6.47;;;3.00;;
48203;SDS011;33994;50.998;5.864;2023-02-28T15:02:34;4.38;;;2.92;;
48203;SDS011;33994;50.998;5.864;2023-02-28T15:05:38;6.53;;;2.72;;
48203;SDS011;33994;50.998;5.864;2023-02-28T15:08:41;7.57;;;3.30;;
48203;SDS011;33994;50.998;5.864;2023-02-28T15:11:45;5.43;;;3.05;;
48203;SDS011;33994;50.998;5.864;2023-02-28T15:14:52;4.18;;;2.80;;
48203;SDS011;33994;50.998;5.864;2023-02-28T15:17:56;12.45;;;5.18;;
48203;SDS011;33994;50.998;5.864;2023-02-28T15:21:02;5.25;;;2.97;;
48203;SDS011;33994;50.998;5.864;2023-02-28T15:24:10;6.20;;;3.15;;
48203;SDS011;33994;50.998;5.864;2023-02-28T15:27:19;4.97;;;2.97;;
48203;SDS011;33994;50.998;5.864;2023-02-28T15:30:26;5.00;;;2.97;;
48203;SDS011;33994;50.998;5.864;2023-02-28T15:33:32;6.10;;;3.53;;
48203;SDS011;33994;50.998;5.864;2023-02-28T15:36:36;5.00;;;2.80;;
48203;SDS011;33994;50.998;5.864;2023-02-28T15:39:41;5.13;;;3.13;;
48203;SDS011;33994;50.998;5.864;2023-02-28T15:42:59;6.55;;;3.10;;
48203;SDS011;33994;50.998;5.864;2023-02-28T15:46:08;4.95;;;3.25;;
48203;SDS011;33994;50.998;5.864;2023-02-28T15:49:14;5.50;;;3.40;;
48203;SDS011;33994;50.998;5.864;2023-02-28T15:52:24;5.75;;;3.25;;
48203;SDS011;33994;50.998;5.864;2023-02-28T15:55:31;6.65;;;3.95;;
48203;SDS011;33994;50.998;5.864;2023-02-28T15:58:34;8.00;;;3.38;;
48203;SDS011;33994;50.998;5.864;2023-02-28T16:01:40;5.95;;;3.15;;
48203;SDS011;33994;50.998;5.864;2023-02-28T16:04:54;5.15;;;3.10;;
48203;SDS011;33994;50.998;5.864;2023-02-28T16:07:59;4.80;;;3.28;;
48203;SDS011;33994;50.998;5.864;2023-02-28T16:11:04;10.40;;;3.67;;
48203;SDS011;33994;50.998;5.864;2023-02-28T16:14:10;6.45;;;3.00;;
48203;SDS011;33994;50.998;5.864;2023-02-28T16:17:19;4.57;;;3.00;;
48203;SDS011;33994;50.998;5.864;2023-02-28T16:20:24;5.63;;;2.85;;
48203;SDS011;33994;50.998;5.864;2023-02-28T16:23:29;5.90;;;4.00;;
48203;SDS011;33994;50.998;5.864;2023-02-28T16:26:32;6.00;;;3.30;;
48203;SDS011;33994;50.998;5.864;2023-02-28T16:29:36;5.90;;;2.90;;
48203;SDS011;33994;50.998;5.864;2023-02-28T16:32:41;7.90;;;3.20;;
48203;SDS011;33994;50.998;5.864;2023-02-28T16:35:44;5.15;;;3.20;;
48203;SDS011;33994;50.998;5.864;2023-02-28T16:38:47;7.05;;;3.33;;
48203;SDS011;33994;50.998;5.864;2023-02-28T16:41:50;8.98;;;3.30;;
48203;SDS011;33994;50.998;5.864;2023-02-28T16:44:54;4.55;;;3.30;;
48203;SDS011;33994;50.998;5.864;2023-02-28T16:47:59;8.63;;;3.90;;
48203;SDS011;33994;50.998;5.864;2023-02-28T16:51:03;4.45;;;3.38;;
48203;SDS011;33994;50.998;5.864;2023-02-28T16:54:07;8.63;;;3.60;;
48203;SDS011;33994;50.998;5.864;2023-02-28T16:57:15;6.28;;;3.42;;
48203;SDS011;33994;50.998;5.864;2023-02-28T17:00:23;4.55;;;3.22;;
48203;SDS011;33994;50.998;5.864;2023-02-28T17:03:28;12.80;;;4.18;;
48203;SDS011;33994;50.998;5.864;2023-02-28T17:06:32;7.40;;;4.32;;
48203;SDS011;33994;50.998;5.864;2023-02-28T17:09:35;10.13;;;5.47;;
48203;SDS011;33994;50.998;5.864;2023-02-28T17:12:38;11.23;;;5.72;;
48203;SDS011;33994;50.998;5.864;2023-02-28T17:15:41;8.00;;;4.57;;
48203;SDS011;33994;50.998;5.864;2023-02-28T17:18:48;6.47;;;3.90;;
48203;SDS011;33994;50.998;5.864;2023-02-28T17:21:52;6.50;;;3.92;;
48203;SDS011;33994;50.998;5.864;2023-02-28T17:24:55;4.18;;;3.33;;
48203;SDS011;33994;50.998;5.864;2023-02-28T17:27:59;6.45;;;4.22;;
48203;SDS011;33994;50.998;5.864;2023-02-28T17:31:02;7.60;;;4.15;;
48203;SDS011;33994;50.998;5.864;2023-02-28T17:34:06;9.15;;;4.35;;
48203;SDS011;33994;50.998;5.864;2023-02-28T17:37:10;6.82;;;4.30;;
48203;SDS011;33994;50.998;5.864;2023-02-28T17:40:14;8.57;;;4.47;;
48203;SDS011;33994;50.998;5.864;2023-02-28T17:43:18;5.13;;;3.50;;
48203;SDS011;33994;50.998;5.864;2023-02-28T17:46:22;7.65;;;4.13;;
48203;SDS011;33994;50.998;5.864;2023-02-28T17:49:27;7.43;;;4.32;;
48203;SDS011;33994;50.998;5.864;2023-02-28T17:52:31;6.55;;;4.15;;
48203;SDS011;33994;50.998;5.864;2023-02-28T17:55:34;8.73;;;5.00;;
48203;SDS011;33994;50.998;5.864;2023-02-28T17:58:37;7.13;;;4.40;;
48203;SDS011;33994;50.998;5.864;2023-02-28T18:01:40;8.18;;;4.57;;
48203;SDS011;33994;50.998;5.864;2023-02-28T18:04:45;9.52;;;4.90;;
48203;SDS011;33994;50.998;5.864;2023-02-28T18:07:48;8.18;;;4.90;;
48203;SDS011;33994;50.998;5.864;2023-02-28T18:10:51;6.65;;;5.18;;
48203;SDS011;33994;50.998;5.864;2023-02-28T18:13:54;8.18;;;4.78;;
48203;SDS011;33994;50.998;5.864;2023-02-28T18:16:57;6.07;;;5.03;;
48203;SDS011;33994;50.998;5.864;2023-02-28T18:20:02;8.13;;;5.32;;
48203;SDS011;33994;50.998;5.864;2023-02-28T18:23:06;7.32;;;5.57;;
48203;SDS011;33994;50.998;5.864;2023-02-28T18:26:09;9.80;;;5.97;;
48203;SDS011;33994;50.998;5.864;2023-02-28T18:29:15;9.70;;;5.63;;
48203;SDS011;33994;50.998;5.864;2023-02-28T18:32:20;12.32;;;6.13;;
48203;SDS011;33994;50.998;5.864;2023-02-28T18:35:24;12.50;;;5.70;;
48203;SDS011;33994;50.998;5.864;2023-02-28T18:38:28;13.00;;;6.78;;
48203;SDS011;33994;50.998;5.864;2023-02-28T18:41:31;14.35;;;6.60;;
48203;SDS011;33994;50.998;5.864;2023-02-28T18:44:35;10.52;;;6.20;;
48203;SDS011;33994;50.998;5.864;2023-02-28T18:47:39;15.27;;;6.78;;
48203;SDS011;33994;50.998;5.864;2023-02-28T18:50:43;9.98;;;7.22;;
48203;SDS011;33994;50.998;5.864;2023-02-28T18:53:46;13.60;;;7.53;;
48203;SDS011;33994;50.998;5.864;2023-02-28T18:56:50;12.88;;;7.47;;
48203;SDS011;33994;50.998;5.864;2023-02-28T18:59:53;10.18;;;6.43;;
48203;SDS011;33994;50.998;5.864;2023-02-28T19:02:56;11.57;;;6.53;;
48203;SDS011;33994;50.998;5.864;2023-02-28T19:06:00;14.93;;;8.27;;
48203;SDS011;33994;50.998;5.864;2023-02-28T19:09:04;11.38;;;6.68;;
48203;SDS011;33994;50.998;5.864;2023-02-28T19:12:08;18.92;;;8.00;;
48203;SDS011;33994;50.998;5.864;2023-02-28T19:15:11;16.25;;;7.95;;
48203;SDS011;33994;50.998;5.864;2023-02-28T19:18:14;14.55;;;7.65;;